createdAt,value
2018-06-14T00:00:45.915Z,12.8
2018-06-14T00:01:47.042Z,12.6
2018-06-14T00:02:48.189Z,12.6
2018-06-14T00:03:49.368Z,12.6
2018-06-14T00:04:50.500Z,12.5
2018-06-14T00:05:51.716Z,12.4
2018-06-14T00:06:52.905Z,12.4
2018-06-14T00:07:54.036Z,12.4
2018-06-14T00:08:55.194Z,12.2
2018-06-14T00:09:56.367Z,12.5
2018-06-14T00:10:57.545Z,12.4
2018-06-14T00:11:58.688Z,12.4
2018-06-14T00:12:59.894Z,12.3
2018-06-14T00:14:01.086Z,12.3
2018-06-14T00:15:02.279Z,12.3
2018-06-14T00:16:03.482Z,12.2
2018-06-14T00:17:04.633Z,12.3
2018-06-14T00:18:05.767Z,12.3
2018-06-14T00:19:06.923Z,12.2
2018-06-14T00:20:08.122Z,12.2
2018-06-14T00:21:09.471Z,12.3
2018-06-14T00:22:10.586Z,12.2
2018-06-14T00:23:11.736Z,12.2
2018-06-14T00:24:12.845Z,12.2
2018-06-14T00:25:13.988Z,12
2018-06-14T00:26:15.447Z,12
2018-06-14T00:27:16.626Z,12.1
2018-06-14T00:28:17.784Z,12.1
2018-06-14T00:29:18.988Z,12.2
2018-06-14T00:30:20.141Z,12.1
2018-06-14T00:31:21.326Z,12.1
2018-06-14T00:32:24.958Z,11.9
2018-06-14T00:33:26.128Z,12.1
2018-06-14T00:34:27.265Z,12.1
2018-06-14T00:35:28.388Z,12.1
2018-06-14T00:36:29.629Z,12
2018-06-14T00:37:30.778Z,12
2018-06-14T00:38:31.900Z,12
2018-06-14T00:39:33.042Z,11.8
2018-06-14T00:40:34.188Z,11.9
2018-06-14T00:41:35.406Z,11.9
2018-06-14T00:42:36.527Z,12
2018-06-14T00:43:37.685Z,11.9
2018-06-14T00:44:38.837Z,11.8
2018-06-14T00:45:40.006Z,11.9
2018-06-14T00:46:41.172Z,11.8
2018-06-14T00:47:42.657Z,11.8
2018-06-14T00:48:43.816Z,11.8
2018-06-14T00:49:44.980Z,11.7
2018-06-14T00:50:46.138Z,11.9
2018-06-14T00:51:48.624Z,11.8
2018-06-14T00:52:50.051Z,11.8
2018-06-14T00:53:51.206Z,11.7
2018-06-14T00:54:52.385Z,11.8
2018-06-14T00:55:53.551Z,11.8
2018-06-14T00:56:56.025Z,11.8
2018-06-14T00:57:57.189Z,11.7
2018-06-14T00:58:58.321Z,11.7
2018-06-14T00:59:59.466Z,11.7
2018-06-14T01:01:00.617Z,11.7
2018-06-14T01:02:01.786Z,11.7
2018-06-14T01:03:02.937Z,11.6
2018-06-14T01:04:04.067Z,11.6
2018-06-14T01:05:05.229Z,11.6
2018-06-14T01:06:06.369Z,11.6
2018-06-14T01:07:07.562Z,11.6
2018-06-14T01:08:08.709Z,11.5
2018-06-14T01:09:09.894Z,11.6
2018-06-14T01:10:11.062Z,11.6
2018-06-14T01:11:12.234Z,11.6
2018-06-14T01:12:13.412Z,11.6
2018-06-14T01:13:14.549Z,11.6
2018-06-14T01:14:15.680Z,11.5
2018-06-14T01:15:16.817Z,11.5
2018-06-14T01:16:17.960Z,11.5
2018-06-14T01:17:19.201Z,11.5
2018-06-14T01:18:20.356Z,11.4
2018-06-14T01:19:21.508Z,11.5
2018-06-14T01:20:22.640Z,11.6
2018-06-14T01:21:23.805Z,11.4
2018-06-14T01:22:25.266Z,11.4
2018-06-14T01:23:26.445Z,11.3
2018-06-14T01:24:27.593Z,11.5
2018-06-14T01:25:28.757Z,11.5
2018-06-14T01:26:29.958Z,11.4
2018-06-14T01:27:31.134Z,11.4
2018-06-14T01:28:32.258Z,11.4
2018-06-14T01:29:33.387Z,11.4
2018-06-14T01:30:34.525Z,11.3
2018-06-14T01:31:35.650Z,11.4
2018-06-14T01:32:36.815Z,11.2
2018-06-14T01:33:37.991Z,11.2
2018-06-14T01:34:39.153Z,11.2
2018-06-14T01:35:40.295Z,11.1
2018-06-14T01:36:41.431Z,11.1
2018-06-14T01:37:42.989Z,11.1
2018-06-14T01:38:44.138Z,11.1
2018-06-14T01:39:45.297Z,11.2
2018-06-14T01:40:46.425Z,11.2
2018-06-14T01:41:47.635Z,11.2
2018-06-14T01:42:48.753Z,11.2
2018-06-14T01:43:49.980Z,11.1
2018-06-14T01:44:51.142Z,11.1
2018-06-14T01:45:52.298Z,11.1
2018-06-14T01:46:53.447Z,11.1
2018-06-14T01:47:54.638Z,11.1
2018-06-14T01:48:55.793Z,11.1
2018-06-14T01:49:56.921Z,11.2
2018-06-14T01:50:58.273Z,11.2
2018-06-14T01:51:59.462Z,11.1
2018-06-14T01:53:00.682Z,11.1
2018-06-14T01:54:02.111Z,11
2018-06-14T01:55:03.233Z,11
2018-06-14T01:56:04.468Z,11.1
2018-06-14T01:57:05.607Z,11.1
2018-06-14T01:58:06.782Z,11.1
2018-06-14T01:59:07.937Z,11
2018-06-14T02:00:09.096Z,11
2018-06-14T02:01:10.281Z,11
2018-06-14T02:02:11.457Z,11
2018-06-14T02:03:12.629Z,11
2018-06-14T02:04:13.777Z,11
2018-06-14T02:05:14.936Z,11
2018-06-14T02:06:16.303Z,10.8
2018-06-14T02:07:20.032Z,10.9
2018-06-14T02:08:21.224Z,10.9
2018-06-14T02:09:22.352Z,10.9
2018-06-14T02:10:23.458Z,10.9
2018-06-14T02:11:24.590Z,10.9
2018-06-14T02:12:25.728Z,10.8
2018-06-14T02:13:26.913Z,10.9
2018-06-14T02:14:28.333Z,10.7
2018-06-14T02:15:29.491Z,10.8
2018-06-14T02:16:30.678Z,10.7
2018-06-14T02:17:31.809Z,10.8
2018-06-14T02:18:33.021Z,10.7
2018-06-14T02:19:34.172Z,10.7
2018-06-14T02:20:35.308Z,10.7
2018-06-14T02:21:36.445Z,10.7
2018-06-14T02:22:37.568Z,10.7
2018-06-14T02:23:38.929Z,10.7
2018-06-14T02:24:40.143Z,10.7
2018-06-14T02:25:41.367Z,10.7
2018-06-14T02:26:42.916Z,10.8
2018-06-14T02:27:44.313Z,10.5
2018-06-14T02:28:45.514Z,10.5
2018-06-14T02:29:46.672Z,10.7
2018-06-14T02:30:47.858Z,10.6
2018-06-14T02:31:49.010Z,10.6
2018-06-14T02:32:50.168Z,10.6
2018-06-14T02:33:51.372Z,10.6
2018-06-14T02:34:52.493Z,10.6
2018-06-14T02:35:53.625Z,10.6
2018-06-14T02:36:54.756Z,10.5
2018-06-14T02:37:55.900Z,10.5
2018-06-14T02:38:57.085Z,10.5
2018-06-14T02:39:58.208Z,10.5
2018-06-14T02:40:59.375Z,10.6
2018-06-14T02:42:00.574Z,10.5
2018-06-14T02:43:01.731Z,10.5
2018-06-14T02:44:02.933Z,10.4
2018-06-14T02:45:04.066Z,10.4
2018-06-14T02:46:05.215Z,10.4
2018-06-14T02:47:06.387Z,10.5
2018-06-14T02:48:07.512Z,10.5
2018-06-14T02:49:08.682Z,10.6
2018-06-14T02:50:09.832Z,10.5
2018-06-14T02:51:10.983Z,10.5
2018-06-14T02:52:12.137Z,10.6
2018-06-14T02:53:13.293Z,10.5
2018-06-14T02:54:14.842Z,10.6
2018-06-14T02:55:16.107Z,10.5
2018-06-14T02:56:17.251Z,10.5
2018-06-14T02:57:18.380Z,10.5
2018-06-14T02:58:19.541Z,10.5
2018-06-14T02:59:20.757Z,10.5
2018-06-14T03:00:21.929Z,10.5
2018-06-14T03:01:23.087Z,10.4
2018-06-14T03:02:24.503Z,10.4
2018-06-14T03:03:25.648Z,10.5
2018-06-14T03:04:26.822Z,10.5
2018-06-14T03:05:27.964Z,10.4
2018-06-14T03:06:29.095Z,10.5
2018-06-14T03:07:30.250Z,10.6
2018-06-14T03:08:31.438Z,10.6
2018-06-14T03:09:32.665Z,10.5
2018-06-14T03:10:33.781Z,10.5
2018-06-14T03:11:34.901Z,10.6
2018-06-14T03:12:36.036Z,10.5
2018-06-14T03:13:37.178Z,10.5
2018-06-14T03:14:38.341Z,10.4
2018-06-14T03:15:39.488Z,10.5
2018-06-14T03:16:41.034Z,10.4
2018-06-14T03:17:42.299Z,10.4
2018-06-14T03:18:43.450Z,10.5
2018-06-14T03:19:44.641Z,10.6
2018-06-14T03:20:45.784Z,10.8
2018-06-14T03:21:46.907Z,10.6
2018-06-14T03:22:48.095Z,10.5
2018-06-14T03:23:49.234Z,10.6
2018-06-14T03:24:50.561Z,10.6
2018-06-14T03:25:51.738Z,10.5
2018-06-14T03:26:52.909Z,10.5
2018-06-14T03:27:54.033Z,10.5
2018-06-14T03:28:55.165Z,10.4
2018-06-14T03:29:56.338Z,10.5
2018-06-14T03:30:57.479Z,10.6
2018-06-14T03:31:58.632Z,10.6
2018-06-14T03:32:59.803Z,10.5
2018-06-14T03:34:00.977Z,10.5
2018-06-14T03:35:02.150Z,10.5
2018-06-14T03:36:03.310Z,10.5
2018-06-14T03:37:04.446Z,10.4
2018-06-14T03:38:05.576Z,10.5
2018-06-14T03:39:06.737Z,10.4
2018-06-14T03:40:07.934Z,10.5
2018-06-14T03:41:09.133Z,10.6
2018-06-14T03:42:10.443Z,10.5
2018-06-14T03:43:11.596Z,10.6
2018-06-14T03:44:12.711Z,10.6
2018-06-14T03:45:13.862Z,10.7
2018-06-14T03:46:14.974Z,10.7
2018-06-14T03:47:16.101Z,10.7
2018-06-14T03:48:17.305Z,10.8
2018-06-14T03:49:18.446Z,10.8
2018-06-14T03:50:19.654Z,10.8
2018-06-14T03:51:20.939Z,10.8
2018-06-14T03:52:22.564Z,10.9
2018-06-14T03:53:23.712Z,10.9
2018-06-14T03:54:24.862Z,10.9
2018-06-14T03:55:26.320Z,11
2018-06-14T03:56:27.480Z,10.9
2018-06-14T03:57:28.633Z,11.1
2018-06-14T03:58:29.833Z,11
2018-06-14T03:59:30.937Z,11.1
2018-06-14T04:00:32.158Z,11.1
2018-06-14T04:01:33.329Z,11.1
2018-06-14T04:02:34.807Z,11.2
2018-06-14T04:03:36.488Z,11.3
2018-06-14T04:04:37.664Z,11.3
2018-06-14T04:05:38.826Z,11.3
2018-06-14T04:06:40.076Z,11.4
2018-06-14T04:07:41.209Z,11.4
2018-06-14T04:08:42.389Z,11.4
2018-06-14T04:09:43.534Z,11.5
2018-06-14T04:10:44.725Z,11.6
2018-06-14T04:11:45.899Z,11.7
2018-06-14T04:12:47.036Z,11.8
2018-06-14T04:13:48.158Z,11.8
2018-06-14T04:14:49.584Z,11.8
2018-06-14T04:15:50.830Z,11.8
2018-06-14T04:16:51.984Z,11.9
2018-06-14T04:17:53.131Z,11.9
2018-06-14T04:18:54.273Z,12
2018-06-14T04:19:55.407Z,12.1
2018-06-14T04:20:56.607Z,12.1
2018-06-14T04:21:57.731Z,12.2
2018-06-14T04:22:58.873Z,12.2
2018-06-14T04:24:00.014Z,12.3
2018-06-14T04:25:01.244Z,12.3
2018-06-14T04:26:02.865Z,12.4
2018-06-14T04:27:04.092Z,12.6
2018-06-14T04:28:06.665Z,12.6
2018-06-14T04:29:07.985Z,12.8
2018-06-14T04:30:09.127Z,12.9
2018-06-14T04:31:10.331Z,13
2018-06-14T04:32:11.465Z,13.3
2018-06-14T04:33:12.603Z,13.5
2018-06-14T04:34:13.745Z,13.5
2018-06-14T04:35:14.879Z,13.6
2018-06-14T04:36:17.713Z,13.6
2018-06-14T04:37:19.884Z,13.7
2018-06-14T04:38:21.065Z,13.8
2018-06-14T04:39:22.257Z,14.1
2018-06-14T04:40:23.342Z,14
2018-06-14T04:41:24.523Z,14
2018-06-14T04:42:25.680Z,14.3
2018-06-14T04:43:26.826Z,14.6
2018-06-14T04:44:27.945Z,14.9
2018-06-14T04:45:29.109Z,15.4
2018-06-14T04:46:30.300Z,15.6
2018-06-14T04:47:31.442Z,15.8
2018-06-14T04:48:32.592Z,16.1
2018-06-14T04:49:33.712Z,16.6
2018-06-14T04:50:34.847Z,16.9
2018-06-14T04:51:35.998Z,17.2
2018-06-14T04:52:37.129Z,17.4
2018-06-14T04:53:38.277Z,17.5
2018-06-14T04:54:39.422Z,17.7
2018-06-14T04:55:40.544Z,17.7
2018-06-14T04:56:41.963Z,17.8
2018-06-14T04:57:43.154Z,18.2
2018-06-14T04:58:44.313Z,18.4
2018-06-14T04:59:45.452Z,18.2
2018-06-14T05:00:46.618Z,18.5
2018-06-14T05:01:47.853Z,19
2018-06-14T05:02:48.998Z,19.1
2018-06-14T05:03:50.149Z,19.1
2018-06-14T05:04:51.414Z,19.2
2018-06-14T05:05:52.605Z,18.9
2018-06-14T05:06:53.821Z,18.8
2018-06-14T05:07:54.973Z,18.9
2018-06-14T05:08:56.231Z,19
2018-06-14T05:09:57.465Z,18.9
2018-06-14T05:10:58.617Z,19
2018-06-14T05:11:59.889Z,19
2018-06-14T05:13:01.091Z,19
2018-06-14T05:14:02.271Z,18.9
2018-06-14T05:15:03.445Z,18.9
2018-06-14T05:16:04.656Z,18.9
2018-06-14T05:17:12.126Z,19
2018-06-14T05:18:13.265Z,19.1
2018-06-14T05:19:14.706Z,19
2018-06-14T05:20:15.858Z,19.1
2018-06-14T05:21:17.003Z,18.9
2018-06-14T05:22:18.175Z,18.9
2018-06-14T05:23:19.340Z,18.9
2018-06-14T05:24:20.554Z,18.8
2018-06-14T05:25:21.732Z,18.8
2018-06-14T05:26:22.877Z,18.8
2018-06-14T05:27:24.557Z,18.9
2018-06-14T05:28:25.736Z,18.6
2018-06-14T05:29:26.926Z,18.7
2018-06-14T05:30:28.096Z,18.9
2018-06-14T05:31:29.270Z,19
2018-06-14T05:32:30.467Z,18.9
2018-06-14T05:33:31.616Z,19.1
2018-06-14T05:34:38.335Z,19.1
2018-06-14T05:35:39.561Z,19.4
2018-06-14T05:36:40.754Z,19.7
2018-06-14T05:37:41.943Z,19.7
2018-06-14T05:38:43.105Z,19.3
2018-06-14T05:39:44.241Z,19.2
2018-06-14T05:40:45.387Z,19.4
2018-06-14T05:41:46.524Z,19.4
2018-06-14T05:42:47.699Z,19.4
2018-06-14T05:43:48.912Z,19.7
2018-06-14T05:44:50.033Z,19.3
2018-06-14T05:45:51.251Z,18.7
2018-06-14T05:46:52.420Z,19
2018-06-14T05:47:53.674Z,19.5
2018-06-14T05:48:54.800Z,19.7
2018-06-14T05:49:56.022Z,19.6
2018-06-14T05:50:57.208Z,19.4
2018-06-14T05:51:58.344Z,19.2
2018-06-14T05:52:59.653Z,19.8
2018-06-14T05:54:00.978Z,19.7
2018-06-14T05:55:02.154Z,20.1
2018-06-14T05:56:03.315Z,20.1
2018-06-14T05:57:04.461Z,20.1
2018-06-14T05:58:05.698Z,19.7
2018-06-14T05:59:06.849Z,19.5
2018-06-14T06:00:08.308Z,19.8
2018-06-14T06:01:09.605Z,19.8
2018-06-14T06:02:10.999Z,20
2018-06-14T06:03:12.329Z,20.4
2018-06-14T06:04:13.659Z,20.5
2018-06-14T06:05:15.038Z,20.1
2018-06-14T06:06:16.234Z,20
2018-06-14T06:07:17.559Z,19.5
2018-06-14T06:08:19.064Z,19.8
2018-06-14T06:09:20.211Z,20
2018-06-14T06:10:21.403Z,19.9
2018-06-14T06:11:22.571Z,19.8
2018-06-14T06:12:23.735Z,20
2018-06-14T06:13:24.952Z,20.6
2018-06-14T06:14:26.146Z,20.9
2018-06-14T06:15:27.261Z,20.6
2018-06-14T06:16:28.416Z,20.7
2018-06-14T06:17:29.574Z,20.6
2018-06-14T06:18:30.784Z,20.5
2018-06-14T06:19:32.048Z,20.9
2018-06-14T06:20:33.331Z,20.9
2018-06-14T06:21:34.659Z,20.8
2018-06-14T06:22:35.827Z,20.9
2018-06-14T06:23:37.020Z,20.7
2018-06-14T06:24:38.249Z,20.5
2018-06-14T06:25:39.430Z,20.8
2018-06-14T06:26:40.619Z,20.7
2018-06-14T06:27:41.776Z,20.9
2018-06-14T06:28:43.205Z,21.1
2018-06-14T06:29:44.352Z,20.9
2018-06-14T06:30:45.524Z,20.8
2018-06-14T06:31:46.701Z,21.1
2018-06-14T06:32:47.909Z,21.3
2018-06-14T06:33:49.141Z,21.2
2018-06-14T06:34:50.384Z,21.3
2018-06-14T06:35:51.632Z,21.4
2018-06-14T06:36:52.797Z,21.4
2018-06-14T06:37:54.008Z,21.5
2018-06-14T06:38:55.285Z,21.4
2018-06-14T06:39:56.440Z,21.4
2018-06-14T06:40:57.613Z,21.5
2018-06-14T06:41:59.447Z,21.7
2018-06-14T06:43:04.582Z,21.8
2018-06-14T06:44:05.864Z,21.9
2018-06-14T06:45:07.140Z,21.9
2018-06-14T06:46:08.285Z,22
2018-06-14T06:47:09.436Z,22
2018-06-14T06:48:10.847Z,22
2018-06-14T06:49:12.230Z,22.1
2018-06-14T06:50:13.405Z,22.2
2018-06-14T06:51:14.597Z,22.2
2018-06-14T06:52:15.747Z,22.3
2018-06-14T06:53:16.947Z,22.4
2018-06-14T06:54:18.408Z,22.4
2018-06-14T06:55:19.595Z,22.5
2018-06-14T06:56:20.833Z,22.5
2018-06-14T06:57:22.101Z,22.7
2018-06-14T06:58:23.288Z,22.9
2018-06-14T06:59:24.810Z,22.9
2018-06-14T07:00:25.996Z,23.1
2018-06-14T07:01:27.190Z,23
2018-06-14T07:02:28.322Z,23.1
2018-06-14T07:03:29.535Z,23.3
2018-06-14T07:04:30.824Z,23.4
2018-06-14T07:05:32.005Z,23.4
2018-06-14T07:06:33.322Z,23.4
2018-06-14T07:07:35.257Z,23.5
2018-06-14T07:08:38.423Z,23.6
2018-06-14T07:09:40.215Z,23.7
2018-06-14T07:10:41.652Z,23.7
2018-06-14T07:11:42.906Z,23.7
2018-06-14T07:12:45.390Z,23.9
2018-06-14T07:13:46.648Z,24
2018-06-14T07:14:47.885Z,24
2018-06-14T07:15:49.052Z,24.1
2018-06-14T07:16:50.233Z,24.2
2018-06-14T07:17:51.509Z,24.2
2018-06-14T07:18:52.762Z,24.3
2018-06-14T07:19:53.995Z,24.4
2018-06-14T07:20:55.199Z,24.5
2018-06-14T07:21:56.426Z,24.4
2018-06-14T07:22:57.632Z,24.5
2018-06-14T07:23:58.865Z,24.5
2018-06-14T07:25:00.169Z,24.5
2018-06-14T07:26:01.498Z,24.6
2018-06-14T07:27:02.786Z,24.7
2018-06-14T07:28:04.084Z,24.8
2018-06-14T07:29:05.718Z,24.9
2018-06-14T07:30:07.275Z,24.9
2018-06-14T07:31:08.523Z,25.1
2018-06-14T07:32:09.689Z,25.2
2018-06-14T07:33:10.915Z,25.2
2018-06-14T07:34:12.218Z,25.2
2018-06-14T07:35:13.527Z,25.1
2018-06-14T07:36:14.974Z,25.1
2018-06-14T07:37:16.138Z,25.4
2018-06-14T07:38:17.339Z,25.5
2018-06-14T07:39:18.558Z,25.5
2018-06-14T07:40:19.808Z,25.2
2018-06-14T07:41:20.951Z,25.2
2018-06-14T07:42:22.204Z,25.2
2018-06-14T07:43:23.422Z,25.1
2018-06-14T07:44:24.684Z,25.1
2018-06-14T07:45:26.000Z,25
2018-06-14T07:46:27.285Z,25
2018-06-14T07:47:31.348Z,25
2018-06-14T07:48:32.553Z,24.9
2018-06-14T07:49:33.712Z,24.9
2018-06-14T07:50:34.944Z,25
2018-06-14T07:51:36.100Z,25
2018-06-14T07:52:37.236Z,25.2
2018-06-14T07:53:38.387Z,25.2
2018-06-14T07:54:40.872Z,25.2
2018-06-14T07:55:42.102Z,25.2
2018-06-14T07:56:43.288Z,25
2018-06-14T07:57:44.468Z,25
2018-06-14T07:58:45.664Z,25
2018-06-14T07:59:46.874Z,25.3
2018-06-14T08:00:48.125Z,25.3
2018-06-14T08:01:49.320Z,25.3
2018-06-14T08:02:50.595Z,25.1
2018-06-14T08:03:51.927Z,25.3
2018-06-14T08:04:53.122Z,25.4
2018-06-14T08:05:54.353Z,25.3
2018-06-14T08:06:55.533Z,25.3
2018-06-14T08:07:56.708Z,25.3
2018-06-14T08:08:57.927Z,25.3
2018-06-14T08:09:59.110Z,25.5
2018-06-14T08:11:01.344Z,25.8
2018-06-14T08:12:02.541Z,25.9
2018-06-14T08:13:03.769Z,26
2018-06-14T08:14:04.973Z,26.1
2018-06-14T08:15:06.144Z,26.1
2018-06-14T08:16:07.455Z,26.1
2018-06-14T08:17:08.770Z,26.2
2018-06-14T08:18:09.971Z,26.3
2018-06-14T08:19:11.143Z,26.2
2018-06-14T08:20:12.413Z,26.2
2018-06-14T08:21:13.862Z,26.1
2018-06-14T08:22:15.374Z,26
2018-06-14T08:23:16.574Z,26.1
2018-06-14T08:24:17.789Z,26.1
2018-06-14T08:25:18.967Z,26.2
2018-06-14T08:26:20.169Z,26
2018-06-14T08:27:21.330Z,25.9
2018-06-14T08:28:22.594Z,25.8
2018-06-14T08:29:23.787Z,25.9
2018-06-14T08:30:24.977Z,26.1
2018-06-14T08:31:26.230Z,25.9
2018-06-14T08:32:27.669Z,25.9
2018-06-14T08:33:29.082Z,25.9
2018-06-14T08:34:30.266Z,25.9
2018-06-14T08:35:31.465Z,25.8
2018-06-14T08:36:32.776Z,25.6
2018-06-14T08:37:33.930Z,25.6
2018-06-14T08:38:35.213Z,25.3
2018-06-14T08:39:36.412Z,25.1
2018-06-14T08:40:37.624Z,25.3
2018-06-14T08:41:38.838Z,25.3
2018-06-14T08:42:40.119Z,25.6
2018-06-14T08:43:41.422Z,25.7
2018-06-14T08:44:42.703Z,25.5
2018-06-14T08:45:43.910Z,25.7
2018-06-14T08:46:45.108Z,25.7
2018-06-14T08:47:46.298Z,25.6
2018-06-14T08:48:47.504Z,25.5
2018-06-14T08:49:48.737Z,25.6
2018-06-14T08:50:49.921Z,25.6
2018-06-14T08:51:51.157Z,25.7
2018-06-14T08:52:52.399Z,25.7
2018-06-14T08:53:53.613Z,25.8
2018-06-14T08:54:54.815Z,25.8
2018-06-14T08:55:55.967Z,25.5
2018-06-14T08:56:57.161Z,25.5
2018-06-14T08:58:00.528Z,25.4
2018-06-14T08:59:03.902Z,25.7
2018-06-14T09:00:05.386Z,25.9
2018-06-14T09:01:06.573Z,25.8
2018-06-14T09:02:08.151Z,25.5
2018-06-14T09:03:09.313Z,25.5
2018-06-14T09:04:10.489Z,25.6
2018-06-14T09:05:11.731Z,25.8
2018-06-14T09:06:13.048Z,25.9
2018-06-14T09:07:14.266Z,25.9
2018-06-14T09:08:15.471Z,26
2018-06-14T09:09:16.661Z,26
2018-06-14T09:10:17.873Z,26
2018-06-14T09:11:19.202Z,25.8
2018-06-14T09:12:20.453Z,25.6
2018-06-14T09:13:21.617Z,25.6
2018-06-14T09:14:22.899Z,25.7
2018-06-14T09:15:24.123Z,25.8
2018-06-14T09:16:25.296Z,26
2018-06-14T09:17:26.762Z,25.9
2018-06-14T09:18:27.975Z,25.8
2018-06-14T09:19:29.209Z,25.7
2018-06-14T09:20:30.412Z,25.8
2018-06-14T09:21:31.600Z,25.7
2018-06-14T09:22:32.924Z,25.9
2018-06-14T09:23:34.209Z,25.9
2018-06-14T09:24:35.497Z,25.8
2018-06-14T09:25:36.758Z,25.9
2018-06-14T09:26:38.007Z,25.9
2018-06-14T09:27:39.433Z,25.9
2018-06-14T09:28:40.722Z,25.9
2018-06-14T09:29:41.938Z,25.9
2018-06-14T09:30:43.160Z,26
2018-06-14T09:31:44.365Z,26
2018-06-14T09:32:45.813Z,26
2018-06-14T09:33:47.179Z,25.9
2018-06-14T09:34:48.563Z,25.9
2018-06-14T09:35:50.099Z,25.8
2018-06-14T09:36:51.920Z,25.7
2018-06-14T09:37:53.348Z,25.5
2018-06-14T09:38:54.738Z,25.4
2018-06-14T09:39:55.992Z,25.4
2018-06-14T09:40:57.431Z,25.4
2018-06-14T09:41:58.766Z,25.5
2018-06-14T09:43:00.226Z,25.6
2018-06-14T09:44:01.690Z,25.7
2018-06-14T09:45:03.055Z,25.7
2018-06-14T09:46:04.276Z,25.8
2018-06-14T09:47:05.544Z,25.8
2018-06-14T09:48:06.876Z,25.9
2018-06-14T09:49:08.055Z,26
2018-06-14T09:50:09.400Z,25.9
2018-06-14T09:51:11.107Z,26
2018-06-14T09:52:12.517Z,26
2018-06-14T09:53:13.876Z,26
2018-06-14T09:54:15.135Z,26
2018-06-14T09:55:16.551Z,26
2018-06-14T09:56:17.986Z,26.1
2018-06-14T09:57:22.219Z,26
2018-06-14T09:58:23.683Z,26.1
2018-06-14T09:59:24.957Z,26.2
2018-06-14T10:00:26.282Z,26.2
2018-06-14T10:01:28.635Z,26.1
2018-06-14T10:02:30.212Z,25.9
2018-06-14T10:03:31.919Z,25.9
2018-06-14T10:04:33.426Z,25.9
2018-06-14T10:05:34.792Z,25.9
2018-06-14T10:06:36.012Z,25.8
2018-06-14T10:07:37.441Z,25.5
2018-06-14T10:08:39.532Z,25.3
2018-06-14T10:09:41.403Z,25.2
2018-06-14T10:10:42.892Z,25.2
2018-06-14T10:11:44.474Z,25.2
2018-06-14T10:12:45.874Z,25.1
2018-06-14T10:13:47.128Z,24.9
2018-06-14T10:14:48.474Z,25
2018-06-14T10:15:49.676Z,25.1
2018-06-14T10:16:50.933Z,25.2
2018-06-14T10:17:55.837Z,25.4
2018-06-14T10:18:57.282Z,25.5
2018-06-14T10:19:58.921Z,25.5
2018-06-14T10:21:02.497Z,25.5
2018-06-14T10:22:03.832Z,25.5
2018-06-14T10:23:05.116Z,25.5
2018-06-14T10:24:07.472Z,25.3
2018-06-14T10:25:08.815Z,25.5
2018-06-14T10:26:10.207Z,25.4
2018-06-14T10:27:11.719Z,25.4
2018-06-14T10:28:13.187Z,25.4
2018-06-14T10:29:14.433Z,25.5
2018-06-14T10:30:15.824Z,25.5
2018-06-14T10:31:17.179Z,25.4
2018-06-14T10:32:18.473Z,25.5
2018-06-14T10:33:19.754Z,25.5
2018-06-14T10:34:21.208Z,25.5
2018-06-14T10:35:22.699Z,25.4
2018-06-14T10:36:24.096Z,25.2
2018-06-14T10:37:25.390Z,25.1
2018-06-14T10:38:26.680Z,25.2
2018-06-14T10:39:27.929Z,25.4
2018-06-14T10:40:36.260Z,25.5
2018-06-14T10:41:37.598Z,25.5
2018-06-14T10:42:42.860Z,25.5
2018-06-14T10:43:44.060Z,25.5
2018-06-14T10:44:45.338Z,25.5
2018-06-14T10:45:46.533Z,25.5
2018-06-14T10:46:47.712Z,25.5
2018-06-14T10:47:48.896Z,25.5
2018-06-14T10:48:50.216Z,25.5
2018-06-14T10:49:51.526Z,25.5
2018-06-14T10:50:52.739Z,25.5
2018-06-14T10:51:53.914Z,25.3
2018-06-14T10:52:55.105Z,25.1
2018-06-14T10:53:56.310Z,25
2018-06-14T10:54:57.537Z,25
2018-06-14T10:55:58.737Z,24.9
2018-06-14T10:56:59.906Z,25
2018-06-14T10:58:01.087Z,25
2018-06-14T10:59:02.254Z,25.2
2018-06-14T11:00:03.548Z,25.3
2018-06-14T11:01:04.803Z,25.3
2018-06-14T11:02:06.057Z,25.3
2018-06-14T11:03:07.352Z,25.4
2018-06-14T11:04:08.624Z,25.1
2018-06-14T11:05:10.001Z,25.2
2018-06-14T11:06:11.346Z,25.1
2018-06-14T11:07:12.718Z,24.8
2018-06-14T11:08:13.962Z,24.7
2018-06-14T11:09:15.244Z,24.6
2018-06-14T11:10:16.535Z,24.5
2018-06-14T11:11:17.896Z,24.6
2018-06-14T11:12:19.297Z,24.6
2018-06-14T11:13:20.964Z,24.6
2018-06-14T11:14:22.689Z,24.6
2018-06-14T11:15:24.763Z,24.6
2018-06-14T11:16:26.596Z,24.8
2018-06-14T11:17:31.458Z,24.9
2018-06-14T11:18:32.851Z,24.9
2018-06-14T11:19:34.233Z,24.9
2018-06-14T11:20:35.750Z,24.8
2018-06-14T11:21:37.287Z,24.8
2018-06-14T11:22:38.536Z,24.8
2018-06-14T11:23:43.019Z,24.8
2018-06-14T11:24:44.483Z,24.9
2018-06-14T11:25:48.529Z,25
2018-06-14T11:26:50.012Z,25
2018-06-14T11:27:51.359Z,24.8
2018-06-14T11:28:56.594Z,24.7
2018-06-14T11:29:58.110Z,24.7
2018-06-14T11:30:59.751Z,24.8
2018-06-14T11:32:01.106Z,24.9
2018-06-14T11:33:05.040Z,24.9
2018-06-14T11:34:06.543Z,24.9
2018-06-14T11:35:07.859Z,25
2018-06-14T11:36:09.804Z,25
2018-06-14T11:37:12.417Z,25.1
2018-06-14T11:38:13.820Z,25
2018-06-14T11:39:15.309Z,25
2018-06-14T11:40:16.609Z,25
2018-06-14T11:41:17.838Z,25
2018-06-14T11:42:19.015Z,25
2018-06-14T11:43:20.233Z,25
2018-06-14T11:44:21.816Z,25
2018-06-14T11:45:23.304Z,25
2018-06-14T11:46:24.575Z,25
2018-06-14T11:47:25.780Z,25
2018-06-14T11:48:27.346Z,24.9
2018-06-14T11:49:29.068Z,24.9
2018-06-14T11:50:30.514Z,24.9
2018-06-14T11:51:33.092Z,25
2018-06-14T11:52:34.554Z,25
2018-06-14T11:53:36.050Z,25
2018-06-14T11:54:37.595Z,25
2018-06-14T11:55:38.853Z,25
2018-06-14T11:56:40.217Z,25
2018-06-14T11:57:43.189Z,24.9
2018-06-14T11:58:45.775Z,24.9
2018-06-14T11:59:47.204Z,24.9
2018-06-14T12:00:48.599Z,24.9
2018-06-14T12:01:50.119Z,24.8
2018-06-14T12:02:51.355Z,24.9
2018-06-14T12:03:52.636Z,25
2018-06-14T12:04:53.956Z,24.9
2018-06-14T12:05:55.536Z,24.9
2018-06-14T12:06:57.126Z,25
2018-06-14T12:07:58.598Z,25
2018-06-14T12:09:00.785Z,24.8
2018-06-14T12:10:02.324Z,24.8
2018-06-14T12:11:03.830Z,24.8
2018-06-14T12:12:05.207Z,24.8
2018-06-14T12:13:06.630Z,24.8
2018-06-14T12:14:08.069Z,24.8
2018-06-14T12:15:13.345Z,24.7
2018-06-14T12:16:14.732Z,24.5
2018-06-14T12:17:16.471Z,24.5
2018-06-14T12:18:17.922Z,24.5
2018-06-14T12:19:19.294Z,24.6
2018-06-14T12:20:20.504Z,24.7
2018-06-14T12:21:21.764Z,24.7
2018-06-14T12:22:23.068Z,24.7
2018-06-14T12:23:24.398Z,24.6
2018-06-14T12:24:25.936Z,24.6
2018-06-14T12:25:27.423Z,24.5
2018-06-14T12:26:28.883Z,24.6
2018-06-14T12:27:30.128Z,24.7
2018-06-14T12:28:31.542Z,24.5
2018-06-14T12:29:32.835Z,24.5
2018-06-14T12:30:34.109Z,24.4
2018-06-14T12:31:35.279Z,24.5
2018-06-14T12:32:36.548Z,24.5
2018-06-14T12:33:40.633Z,24.4
2018-06-14T12:34:43.760Z,24.4
2018-06-14T12:35:45.108Z,24.4
2018-06-14T12:36:49.331Z,24.4
2018-06-14T12:37:50.687Z,24.5
2018-06-14T12:38:51.865Z,24.4
2018-06-14T12:39:53.098Z,24.5
2018-06-14T12:40:54.259Z,24.4
2018-06-14T12:41:55.486Z,24.4
2018-06-14T12:42:56.962Z,24.5
2018-06-14T12:43:58.205Z,24.6
2018-06-14T12:44:59.457Z,24.6
2018-06-14T12:46:00.688Z,24.7
2018-06-14T12:47:06.338Z,24.7
2018-06-14T12:48:07.980Z,24.7
2018-06-14T12:49:09.208Z,24.7
2018-06-14T12:50:10.379Z,24.7
2018-06-14T12:51:11.629Z,24.7
2018-06-14T12:52:12.813Z,24.7
2018-06-14T12:53:14.093Z,24.7
2018-06-14T12:54:15.308Z,24.7
2018-06-14T12:55:16.523Z,24.7
2018-06-14T12:56:17.875Z,24.7
2018-06-14T12:57:19.296Z,24.7
2018-06-14T12:58:20.948Z,24.4
2018-06-14T12:59:23.064Z,24.4
2018-06-14T13:00:24.254Z,24.3
2018-06-14T13:01:25.852Z,24.4
2018-06-14T13:02:27.142Z,24.5
2018-06-14T13:03:28.563Z,24.5
2018-06-14T13:04:29.821Z,24.4
2018-06-14T13:05:31.164Z,24.5
2018-06-14T13:06:32.427Z,24.6
2018-06-14T13:07:33.820Z,24.6
2018-06-14T13:08:35.451Z,24.6
2018-06-14T13:09:36.688Z,24.6
2018-06-14T13:10:37.891Z,24.6
2018-06-14T13:11:39.068Z,24.5
2018-06-14T13:12:40.259Z,24.6
2018-06-14T13:13:42.781Z,24.6
2018-06-14T13:14:44.228Z,24.6
2018-06-14T13:15:45.475Z,24.6
2018-06-14T13:16:46.698Z,24.7
2018-06-14T13:17:47.897Z,24.7
2018-06-14T13:18:49.117Z,24.7
2018-06-14T13:19:50.291Z,24.7
2018-06-14T13:20:51.518Z,24.6
2018-06-14T13:21:52.764Z,24.6
2018-06-14T13:22:55.349Z,24.6
2018-06-14T13:23:56.820Z,24.5
2018-06-14T13:24:58.086Z,24.4
2018-06-14T13:25:59.279Z,24.5
2018-06-14T13:27:04.301Z,24.4
2018-06-14T13:28:06.471Z,24.5
2018-06-14T13:29:08.008Z,24.5
2018-06-14T13:30:09.217Z,24.5
2018-06-14T13:31:10.378Z,24.5
2018-06-14T13:32:11.567Z,24.3
2018-06-14T13:33:12.750Z,24.5
2018-06-14T13:34:13.964Z,24.5
2018-06-14T13:35:15.130Z,24.4
2018-06-14T13:36:16.313Z,24.3
2018-06-14T13:37:17.498Z,24.3
2018-06-14T13:38:18.688Z,24.3
2018-06-14T13:39:20.175Z,24.3
2018-06-14T13:40:21.354Z,24.3
2018-06-14T13:41:22.525Z,24.3
2018-06-14T13:42:25.040Z,24.3
2018-06-14T13:43:27.309Z,24.4